sensor_id;sensor_type;location;lat;lon;timestamp;P1;durP1;ratioP1;P2;durP2;ratioP2
44893;SDS011;30625;52.206;21.030;2022-12-07T00:01:33;54.38;;;24.77;;
44893;SDS011;30625;52.206;21.030;2022-12-07T00:04:00;62.20;;;26.73;;
44893;SDS011;30625;52.206;21.030;2022-12-07T00:06:31;67.88;;;29.38;;
44893;SDS011;30625;52.206;21.030;2022-12-07T00:08:59;65.93;;;28.58;;
44893;SDS011;30625;52.206;21.030;2022-12-07T00:11:25;65.40;;;28.67;;
44893;SDS011;30625;52.206;21.030;2022-12-07T00:13:52;77.03;;;32.00;;
44893;SDS011;30625;52.206;21.030;2022-12-07T00:16:21;81.07;;;31.55;;
44893;SDS011;30625;52.206;21.030;2022-12-07T00:18:48;76.68;;;30.50;;
44893;SDS011;30625;52.206;21.030;2022-12-07T00:23:42;74.13;;;31.35;;
44893;SDS011;30625;52.206;21.030;2022-12-07T00:28:35;80.75;;;33.42;;
44893;SDS011;30625;52.206;21.030;2022-12-07T00:31:05;78.18;;;33.05;;
44893;SDS011;30625;52.206;21.030;2022-12-07T00:33:34;69.82;;;30.75;;
44893;SDS011;30625;52.206;21.030;2022-12-07T00:36:01;86.40;;;35.83;;
44893;SDS011;30625;52.206;21.030;2022-12-07T00:38:30;75.60;;;31.50;;
44893;SDS011;30625;52.206;21.030;2022-12-07T00:40:58;84.72;;;37.28;;
44893;SDS011;30625;52.206;21.030;2022-12-07T00:43:29;86.10;;;37.25;;
44893;SDS011;30625;52.206;21.030;2022-12-07T00:45:55;85.50;;;34.08;;
44893;SDS011;30625;52.206;21.030;2022-12-07T00:48:21;98.07;;;37.72;;
44893;SDS011;30625;52.206;21.030;2022-12-07T00:50:47;83.47;;;34.95;;
44893;SDS011;30625;52.206;21.030;2022-12-07T00:53:13;84.97;;;37.10;;
44893;SDS011;30625;52.206;21.030;2022-12-07T00:55:39;71.00;;;32.65;;
44893;SDS011;30625;52.206;21.030;2022-12-07T00:58:05;101.95;;;39.05;;
44893;SDS011;30625;52.206;21.030;2022-12-07T01:00:31;84.43;;;33.53;;
44893;SDS011;30625;52.206;21.030;2022-12-07T01:02:58;100.97;;;39.88;;
44893;SDS011;30625;52.206;21.030;2022-12-07T01:05:24;80.75;;;35.65;;
44893;SDS011;30625;52.206;21.030;2022-12-07T01:07:50;74.40;;;34.65;;
44893;SDS011;30625;52.206;21.030;2022-12-07T01:10:16;82.22;;;35.22;;
44893;SDS011;30625;52.206;21.030;2022-12-07T01:12:41;99.95;;;39.28;;
44893;SDS011;30625;52.206;21.030;2022-12-07T01:15:07;77.30;;;35.20;;
44893;SDS011;30625;52.206;21.030;2022-12-07T01:19:59;78.85;;;34.05;;
44893;SDS011;30625;52.206;21.030;2022-12-07T01:22:26;81.00;;;36.60;;
44893;SDS011;30625;52.206;21.030;2022-12-07T01:24:52;78.65;;;35.30;;
44893;SDS011;30625;52.206;21.030;2022-12-07T01:27:17;83.05;;;35.08;;
44893;SDS011;30625;52.206;21.030;2022-12-07T01:29:43;74.78;;;32.10;;
44893;SDS011;30625;52.206;21.030;2022-12-07T01:32:09;72.97;;;31.08;;
44893;SDS011;30625;52.206;21.030;2022-12-07T01:34:35;60.67;;;29.00;;
44893;SDS011;30625;52.206;21.030;2022-12-07T01:37:01;72.55;;;31.05;;
44893;SDS011;30625;52.206;21.030;2022-12-07T01:39:26;72.63;;;31.85;;
44893;SDS011;30625;52.206;21.030;2022-12-07T01:41:53;63.38;;;29.08;;
44893;SDS011;30625;52.206;21.030;2022-12-07T01:44:26;68.13;;;30.00;;
44893;SDS011;30625;52.206;21.030;2022-12-07T01:49:30;63.33;;;28.65;;
44893;SDS011;30625;52.206;21.030;2022-12-07T01:51:59;68.47;;;28.67;;
44893;SDS011;30625;52.206;21.030;2022-12-07T01:54:32;57.70;;;25.15;;
44893;SDS011;30625;52.206;21.030;2022-12-07T01:56:59;48.22;;;22.45;;
44893;SDS011;30625;52.206;21.030;2022-12-07T01:59:25;48.13;;;22.92;;
44893;SDS011;30625;52.206;21.030;2022-12-07T02:04:17;38.08;;;18.40;;
44893;SDS011;30625;52.206;21.030;2022-12-07T02:06:44;38.97;;;17.52;;
44893;SDS011;30625;52.206;21.030;2022-12-07T02:09:11;37.10;;;19.10;;
44893;SDS011;30625;52.206;21.030;2022-12-07T02:11:37;34.45;;;17.88;;
44893;SDS011;30625;52.206;21.030;2022-12-07T02:19:09;37.20;;;16.25;;
44893;SDS011;30625;52.206;21.030;2022-12-07T02:27:43;31.75;;;15.65;;
44893;SDS011;30625;52.206;21.030;2022-12-07T02:30:31;29.25;;;14.23;;
44893;SDS011;30625;52.206;21.030;2022-12-07T02:36:51;26.52;;;13.98;;
44893;SDS011;30625;52.206;21.030;2022-12-07T02:38:55;32.33;;;14.48;;
44893;SDS011;30625;52.206;21.030;2022-12-07T02:43:57;28.17;;;14.50;;
44893;SDS011;30625;52.206;21.030;2022-12-07T02:46:26;32.45;;;14.82;;
44893;SDS011;30625;52.206;21.030;2022-12-07T02:48:56;27.88;;;13.90;;
44893;SDS011;30625;52.206;21.030;2022-12-07T02:51:24;39.50;;;15.57;;
44893;SDS011;30625;52.206;21.030;2022-12-07T02:56:20;30.63;;;14.57;;
44893;SDS011;30625;52.206;21.030;2022-12-07T03:10:57;29.63;;;15.05;;
44893;SDS011;30625;52.206;21.030;2022-12-07T03:13:50;29.00;;;14.50;;
44893;SDS011;30625;52.206;21.030;2022-12-07T03:16:27;36.47;;;15.75;;
44893;SDS011;30625;52.206;21.030;2022-12-07T03:18:58;31.15;;;14.73;;
44893;SDS011;30625;52.206;21.030;2022-12-07T03:21:42;35.33;;;15.57;;
44893;SDS011;30625;52.206;21.030;2022-12-07T03:24:34;31.48;;;14.77;;
44893;SDS011;30625;52.206;21.030;2022-12-07T03:27:24;30.27;;;14.00;;
44893;SDS011;30625;52.206;21.030;2022-12-07T03:29:54;30.17;;;14.52;;
44893;SDS011;30625;52.206;21.030;2022-12-07T03:37:55;32.08;;;14.20;;
44893;SDS011;30625;52.206;21.030;2022-12-07T03:40:45;25.92;;;13.00;;
44893;SDS011;30625;52.206;21.030;2022-12-07T03:43:15;20.48;;;11.27;;
44893;SDS011;30625;52.206;21.030;2022-12-07T03:45:44;21.45;;;10.80;;
44893;SDS011;30625;52.206;21.030;2022-12-07T03:54:30;21.45;;;10.90;;
44893;SDS011;30625;52.206;21.030;2022-12-07T03:57:16;19.05;;;9.93;;
44893;SDS011;30625;52.206;21.030;2022-12-07T03:59:43;19.80;;;10.15;;
44893;SDS011;30625;52.206;21.030;2022-12-07T04:02:11;20.25;;;10.77;;
44893;SDS011;30625;52.206;21.030;2022-12-07T04:04:38;20.88;;;10.52;;
44893;SDS011;30625;52.206;21.030;2022-12-07T04:07:04;22.23;;;11.10;;
44893;SDS011;30625;52.206;21.030;2022-12-07T04:09:30;20.23;;;10.20;;
44893;SDS011;30625;52.206;21.030;2022-12-07T04:11:58;20.98;;;11.65;;
44893;SDS011;30625;52.206;21.030;2022-12-07T04:14:24;23.83;;;11.98;;
44893;SDS011;30625;52.206;21.030;2022-12-07T04:16:51;20.17;;;11.05;;
44893;SDS011;30625;52.206;21.030;2022-12-07T04:19:23;21.15;;;10.93;;
44893;SDS011;30625;52.206;21.030;2022-12-07T04:21:50;21.90;;;11.32;;
44893;SDS011;30625;52.206;21.030;2022-12-07T04:24:16;19.40;;;10.60;;
44893;SDS011;30625;52.206;21.030;2022-12-07T04:26:42;24.00;;;12.25;;
44893;SDS011;30625;52.206;21.030;2022-12-07T04:29:09;19.35;;;9.05;;
44893;SDS011;30625;52.206;21.030;2022-12-07T04:31:35;19.48;;;9.35;;
44893;SDS011;30625;52.206;21.030;2022-12-07T04:34:01;15.02;;;8.05;;
44893;SDS011;30625;52.206;21.030;2022-12-07T04:38:53;17.65;;;7.63;;
44893;SDS011;30625;52.206;21.030;2022-12-07T04:41:20;14.63;;;8.02;;
44893;SDS011;30625;52.206;21.030;2022-12-07T04:43:55;19.63;;;8.95;;
44893;SDS011;30625;52.206;21.030;2022-12-07T04:46:22;16.92;;;8.70;;
44893;SDS011;30625;52.206;21.030;2022-12-07T04:48:49;14.13;;;8.32;;
44893;SDS011;30625;52.206;21.030;2022-12-07T04:51:16;15.93;;;8.35;;
44893;SDS011;30625;52.206;21.030;2022-12-07T04:53:45;16.55;;;8.30;;
44893;SDS011;30625;52.206;21.030;2022-12-07T04:56:11;16.77;;;8.73;;
44893;SDS011;30625;52.206;21.030;2022-12-07T04:58:38;15.90;;;8.10;;
44893;SDS011;30625;52.206;21.030;2022-12-07T05:01:04;17.90;;;8.75;;
44893;SDS011;30625;52.206;21.030;2022-12-07T05:03:29;15.25;;;8.18;;
44893;SDS011;30625;52.206;21.030;2022-12-07T05:05:55;16.60;;;8.95;;
44893;SDS011;30625;52.206;21.030;2022-12-07T05:08:21;15.68;;;8.45;;
44893;SDS011;30625;52.206;21.030;2022-12-07T05:10:48;15.43;;;9.25;;
44893;SDS011;30625;52.206;21.030;2022-12-07T05:13:14;16.52;;;8.25;;
44893;SDS011;30625;52.206;21.030;2022-12-07T05:15:39;16.83;;;8.70;;
44893;SDS011;30625;52.206;21.030;2022-12-07T05:18:05;15.38;;;8.65;;
44893;SDS011;30625;52.206;21.030;2022-12-07T05:20:31;16.73;;;8.23;;
44893;SDS011;30625;52.206;21.030;2022-12-07T05:22:57;16.20;;;8.82;;
44893;SDS011;30625;52.206;21.030;2022-12-07T05:27:49;15.55;;;8.38;;
44893;SDS011;30625;52.206;21.030;2022-12-07T05:30:15;15.43;;;8.15;;
44893;SDS011;30625;52.206;21.030;2022-12-07T05:32:40;16.48;;;9.43;;
44893;SDS011;30625;52.206;21.030;2022-12-07T05:35:06;17.98;;;9.13;;
44893;SDS011;30625;52.206;21.030;2022-12-07T05:37:32;18.15;;;8.70;;
44893;SDS011;30625;52.206;21.030;2022-12-07T05:39:58;23.50;;;10.40;;
44893;SDS011;30625;52.206;21.030;2022-12-07T05:42:24;20.60;;;10.07;;
44893;SDS011;30625;52.206;21.030;2022-12-07T05:44:49;17.52;;;9.43;;
44893;SDS011;30625;52.206;21.030;2022-12-07T05:47:15;18.65;;;9.23;;
44893;SDS011;30625;52.206;21.030;2022-12-07T05:49:41;20.77;;;8.88;;
44893;SDS011;30625;52.206;21.030;2022-12-07T05:52:07;19.33;;;10.05;;
44893;SDS011;30625;52.206;21.030;2022-12-07T05:54:33;21.67;;;10.05;;
44893;SDS011;30625;52.206;21.030;2022-12-07T05:56:59;18.15;;;9.25;;
44893;SDS011;30625;52.206;21.030;2022-12-07T05:59:25;18.42;;;9.70;;
44893;SDS011;30625;52.206;21.030;2022-12-07T06:01:54;23.35;;;9.90;;
44893;SDS011;30625;52.206;21.030;2022-12-07T06:04:20;21.02;;;10.60;;
44893;SDS011;30625;52.206;21.030;2022-12-07T06:06:46;21.38;;;11.05;;
44893;SDS011;30625;52.206;21.030;2022-12-07T06:11:39;20.10;;;9.93;;
44893;SDS011;30625;52.206;21.030;2022-12-07T06:14:23;21.40;;;10.25;;
44893;SDS011;30625;52.206;21.030;2022-12-07T06:19:16;22.70;;;9.98;;
44893;SDS011;30625;52.206;21.030;2022-12-07T06:21:42;25.35;;;11.32;;
44893;SDS011;30625;52.206;21.030;2022-12-07T06:24:08;22.02;;;10.95;;
44893;SDS011;30625;52.206;21.030;2022-12-07T06:26:38;22.92;;;10.70;;
44893;SDS011;30625;52.206;21.030;2022-12-07T06:29:04;20.40;;;10.68;;
44893;SDS011;30625;52.206;21.030;2022-12-07T06:31:31;24.58;;;11.90;;
44893;SDS011;30625;52.206;21.030;2022-12-07T06:34:06;22.85;;;12.07;;
44893;SDS011;30625;52.206;21.030;2022-12-07T06:36:37;27.23;;;12.57;;
44893;SDS011;30625;52.206;21.030;2022-12-07T06:39:03;28.27;;;12.40;;
44893;SDS011;30625;52.206;21.030;2022-12-07T06:41:30;28.85;;;12.60;;
44893;SDS011;30625;52.206;21.030;2022-12-07T06:43:56;26.13;;;11.25;;
44893;SDS011;30625;52.206;21.030;2022-12-07T06:46:22;21.48;;;10.90;;
44893;SDS011;30625;52.206;21.030;2022-12-07T06:48:48;24.33;;;11.05;;
44893;SDS011;30625;52.206;21.030;2022-12-07T06:51:14;24.58;;;10.90;;
44893;SDS011;30625;52.206;21.030;2022-12-07T06:53:40;22.75;;;11.07;;
44893;SDS011;30625;52.206;21.030;2022-12-07T06:56:06;24.00;;;11.43;;
44893;SDS011;30625;52.206;21.030;2022-12-07T07:00:57;22.48;;;10.80;;
44893;SDS011;30625;52.206;21.030;2022-12-07T07:03:23;25.33;;;12.23;;
44893;SDS011;30625;52.206;21.030;2022-12-07T07:05:49;24.98;;;10.88;;
44893;SDS011;30625;52.206;21.030;2022-12-07T07:08:15;22.92;;;11.02;;
44893;SDS011;30625;52.206;21.030;2022-12-07T07:10:41;23.30;;;11.27;;
44893;SDS011;30625;52.206;21.030;2022-12-07T07:13:07;26.98;;;11.32;;
44893;SDS011;30625;52.206;21.030;2022-12-07T07:15:33;21.17;;;11.18;;
44893;SDS011;30625;52.206;21.030;2022-12-07T07:17:59;21.40;;;11.07;;
44893;SDS011;30625;52.206;21.030;2022-12-07T07:20:25;19.60;;;10.23;;
44893;SDS011;30625;52.206;21.030;2022-12-07T07:22:53;19.73;;;10.40;;
44893;SDS011;30625;52.206;21.030;2022-12-07T07:25:19;27.77;;;11.65;;
44893;SDS011;30625;52.206;21.030;2022-12-07T07:27:45;25.75;;;11.77;;
44893;SDS011;30625;52.206;21.030;2022-12-07T07:30:11;24.98;;;11.65;;
44893;SDS011;30625;52.206;21.030;2022-12-07T07:32:37;29.25;;;11.55;;
44893;SDS011;30625;52.206;21.030;2022-12-07T07:35:03;25.85;;;11.93;;
44893;SDS011;30625;52.206;21.030;2022-12-07T07:39:54;25.15;;;12.00;;
44893;SDS011;30625;52.206;21.030;2022-12-07T07:42:20;26.52;;;10.60;;
44893;SDS011;30625;52.206;21.030;2022-12-07T07:44:46;23.67;;;11.73;;
44893;SDS011;30625;52.206;21.030;2022-12-07T07:47:12;23.02;;;10.93;;
44893;SDS011;30625;52.206;21.030;2022-12-07T07:49:38;26.55;;;12.02;;
44893;SDS011;30625;52.206;21.030;2022-12-07T07:52:04;25.55;;;11.88;;
44893;SDS011;30625;52.206;21.030;2022-12-07T07:54:31;29.23;;;11.73;;
44893;SDS011;30625;52.206;21.030;2022-12-07T07:56:56;27.02;;;11.57;;
44893;SDS011;30625;52.206;21.030;2022-12-07T07:59:22;23.92;;;11.02;;
44893;SDS011;30625;52.206;21.030;2022-12-07T08:01:49;22.83;;;10.73;;
44893;SDS011;30625;52.206;21.030;2022-12-07T08:04:15;25.10;;;11.38;;
44893;SDS011;30625;52.206;21.030;2022-12-07T08:06:41;23.88;;;11.98;;
44893;SDS011;30625;52.206;21.030;2022-12-07T08:09:07;27.88;;;11.65;;
44893;SDS011;30625;52.206;21.030;2022-12-07T08:11:33;25.15;;;11.52;;
44893;SDS011;30625;52.206;21.030;2022-12-07T08:14:01;26.52;;;12.40;;
44893;SDS011;30625;52.206;21.030;2022-12-07T08:16:27;27.90;;;13.07;;
44893;SDS011;30625;52.206;21.030;2022-12-07T08:18:52;28.60;;;12.88;;
44893;SDS011;30625;52.206;21.030;2022-12-07T08:21:18;26.58;;;11.70;;
44893;SDS011;30625;52.206;21.030;2022-12-07T08:26:11;26.77;;;11.75;;
44893;SDS011;30625;52.206;21.030;2022-12-07T08:28:39;26.90;;;12.90;;
44893;SDS011;30625;52.206;21.030;2022-12-07T08:31:06;39.45;;;14.65;;
44893;SDS011;30625;52.206;21.030;2022-12-07T08:33:36;32.35;;;14.88;;
44893;SDS011;30625;52.206;21.030;2022-12-07T08:36:06;35.33;;;15.07;;
44893;SDS011;30625;52.206;21.030;2022-12-07T08:38:34;34.38;;;14.63;;
44893;SDS011;30625;52.206;21.030;2022-12-07T08:41:01;37.97;;;16.35;;
44893;SDS011;30625;52.206;21.030;2022-12-07T08:43:27;36.92;;;16.85;;
44893;SDS011;30625;52.206;21.030;2022-12-07T08:48:34;47.25;;;18.15;;
44893;SDS011;30625;52.206;21.030;2022-12-07T08:51:04;47.78;;;17.98;;
44893;SDS011;30625;52.206;21.030;2022-12-07T08:53:30;43.13;;;17.63;;
44893;SDS011;30625;52.206;21.030;2022-12-07T08:58:22;54.92;;;20.60;;
44893;SDS011;30625;52.206;21.030;2022-12-07T09:00:49;51.50;;;20.83;;
44893;SDS011;30625;52.206;21.030;2022-12-07T09:03:15;39.90;;;18.50;;
44893;SDS011;30625;52.206;21.030;2022-12-07T09:05:41;45.88;;;19.05;;
44893;SDS011;30625;52.206;21.030;2022-12-07T09:08:07;45.67;;;20.02;;
44893;SDS011;30625;52.206;21.030;2022-12-07T09:12:59;43.65;;;17.75;;
44893;SDS011;30625;52.206;21.030;2022-12-07T09:15:28;47.53;;;17.80;;
44893;SDS011;30625;52.206;21.030;2022-12-07T09:17:54;42.55;;;17.60;;
44893;SDS011;30625;52.206;21.030;2022-12-07T09:20:20;35.78;;;16.30;;
44893;SDS011;30625;52.206;21.030;2022-12-07T09:22:47;40.33;;;17.25;;
44893;SDS011;30625;52.206;21.030;2022-12-07T09:25:12;35.30;;;16.20;;
44893;SDS011;30625;52.206;21.030;2022-12-07T09:27:38;39.88;;;16.08;;
44893;SDS011;30625;52.206;21.030;2022-12-07T09:30:04;36.08;;;15.23;;
44893;SDS011;30625;52.206;21.030;2022-12-07T09:32:31;34.10;;;14.73;;
44893;SDS011;30625;52.206;21.030;2022-12-07T09:34:56;41.10;;;15.95;;
44893;SDS011;30625;52.206;21.030;2022-12-07T09:37:22;32.10;;;15.13;;
44893;SDS011;30625;52.206;21.030;2022-12-07T09:39:48;36.67;;;15.35;;
44893;SDS011;30625;52.206;21.030;2022-12-07T09:44:59;39.10;;;15.25;;
44893;SDS011;30625;52.206;21.030;2022-12-07T09:47:26;39.05;;;16.17;;
44893;SDS011;30625;52.206;21.030;2022-12-07T09:49:55;37.50;;;15.52;;
44893;SDS011;30625;52.206;21.030;2022-12-07T09:52:28;41.45;;;16.70;;
44893;SDS011;30625;52.206;21.030;2022-12-07T09:54:54;37.20;;;15.18;;
44893;SDS011;30625;52.206;21.030;2022-12-07T09:57:22;36.03;;;15.02;;
44893;SDS011;30625;52.206;21.030;2022-12-07T09:59:54;33.90;;;15.07;;
44893;SDS011;30625;52.206;21.030;2022-12-07T10:02:35;32.17;;;13.65;;
44893;SDS011;30625;52.206;21.030;2022-12-07T10:05:07;34.50;;;13.05;;
44893;SDS011;30625;52.206;21.030;2022-12-07T10:07:40;28.20;;;13.73;;
44893;SDS011;30625;52.206;21.030;2022-12-07T10:10:09;33.55;;;13.13;;
44893;SDS011;30625;52.206;21.030;2022-12-07T10:12:56;34.67;;;14.05;;
44893;SDS011;30625;52.206;21.030;2022-12-07T10:20:45;37.65;;;14.80;;
44893;SDS011;30625;52.206;21.030;2022-12-07T10:23:16;39.65;;;15.00;;
44893;SDS011;30625;52.206;21.030;2022-12-07T10:25:42;39.13;;;14.57;;
44893;SDS011;30625;52.206;21.030;2022-12-07T10:28:14;32.17;;;13.05;;
44893;SDS011;30625;52.206;21.030;2022-12-07T10:30:52;31.33;;;12.38;;
44893;SDS011;30625;52.206;21.030;2022-12-07T10:33:28;21.77;;;10.43;;
44893;SDS011;30625;52.206;21.030;2022-12-07T10:36:47;27.63;;;11.02;;
44893;SDS011;30625;52.206;21.030;2022-12-07T10:39:00;25.33;;;11.80;;
44893;SDS011;30625;52.206;21.030;2022-12-07T10:41:29;30.98;;;11.95;;
44893;SDS011;30625;52.206;21.030;2022-12-07T10:43:56;24.30;;;11.90;;
44893;SDS011;30625;52.206;21.030;2022-12-07T10:46:37;28.63;;;12.02;;
44893;SDS011;30625;52.206;21.030;2022-12-07T10:51:50;26.38;;;11.20;;
44893;SDS011;30625;52.206;21.030;2022-12-07T11:00:08;23.83;;;11.32;;
44893;SDS011;30625;52.206;21.030;2022-12-07T11:11:09;23.77;;;11.75;;
44893;SDS011;30625;52.206;21.030;2022-12-07T11:16:21;21.30;;;11.55;;
44893;SDS011;30625;52.206;21.030;2022-12-07T11:22:06;23.50;;;12.30;;
44893;SDS011;30625;52.206;21.030;2022-12-07T11:24:42;24.52;;;11.73;;
44893;SDS011;30625;52.206;21.030;2022-12-07T11:27:47;22.80;;;11.80;;
44893;SDS011;30625;52.206;21.030;2022-12-07T11:30:28;21.67;;;12.05;;
44893;SDS011;30625;52.206;21.030;2022-12-07T11:38:54;22.50;;;11.50;;
44893;SDS011;30625;52.206;21.030;2022-12-07T11:41:25;22.75;;;11.60;;
44893;SDS011;30625;52.206;21.030;2022-12-07T11:46:29;22.20;;;11.40;;
44893;SDS011;30625;52.206;21.030;2022-12-07T11:49:12;23.52;;;12.15;;
44893;SDS011;30625;52.206;21.030;2022-12-07T11:51:52;29.90;;;11.88;;
44893;SDS011;30625;52.206;21.030;2022-12-07T11:54:26;22.42;;;11.07;;
44893;SDS011;30625;52.206;21.030;2022-12-07T11:56:57;24.60;;;11.55;;
44893;SDS011;30625;52.206;21.030;2022-12-07T11:59:36;19.63;;;10.25;;
44893;SDS011;30625;52.206;21.030;2022-12-07T12:04:44;18.90;;;10.68;;
44893;SDS011;30625;52.206;21.030;2022-12-07T12:07:44;20.15;;;10.73;;
44893;SDS011;30625;52.206;21.030;2022-12-07T12:10:19;23.60;;;10.52;;
44893;SDS011;30625;52.206;21.030;2022-12-07T12:18:22;23.35;;;11.15;;
44893;SDS011;30625;52.206;21.030;2022-12-07T12:20:58;22.63;;;11.05;;
44893;SDS011;30625;52.206;21.030;2022-12-07T12:23:44;23.48;;;11.77;;
44893;SDS011;30625;52.206;21.030;2022-12-07T12:26:23;24.48;;;12.43;;
44893;SDS011;30625;52.206;21.030;2022-12-07T12:28:59;25.20;;;11.73;;
44893;SDS011;30625;52.206;21.030;2022-12-07T12:31:32;24.13;;;12.52;;
44893;SDS011;30625;52.206;21.030;2022-12-07T12:34:02;26.30;;;12.27;;
44893;SDS011;30625;52.206;21.030;2022-12-07T12:52:49;21.23;;;9.25;;
44893;SDS011;30625;52.206;21.030;2022-12-07T12:55:58;22.75;;;11.32;;
44893;SDS011;30625;52.206;21.030;2022-12-07T12:58:37;21.58;;;11.32;;
44893;SDS011;30625;52.206;21.030;2022-12-07T13:04:01;21.60;;;11.02;;
44893;SDS011;30625;52.206;21.030;2022-12-07T13:06:34;20.30;;;10.43;;
44893;SDS011;30625;52.206;21.030;2022-12-07T13:09:03;19.65;;;9.75;;
44893;SDS011;30625;52.206;21.030;2022-12-07T13:17:09;19.23;;;10.55;;
44893;SDS011;30625;52.206;21.030;2022-12-07T13:19:54;18.10;;;9.68;;
44893;SDS011;30625;52.206;21.030;2022-12-07T13:27:57;19.08;;;10.02;;
44893;SDS011;30625;52.206;21.030;2022-12-07T13:33:05;18.13;;;9.30;;
44893;SDS011;30625;52.206;21.030;2022-12-07T13:35:34;18.90;;;10.02;;
44893;SDS011;30625;52.206;21.030;2022-12-07T13:38:04;18.77;;;9.40;;
44893;SDS011;30625;52.206;21.030;2022-12-07T13:40:40;19.58;;;10.90;;
44893;SDS011;30625;52.206;21.030;2022-12-07T13:43:12;20.23;;;10.25;;
44893;SDS011;30625;52.206;21.030;2022-12-07T13:45:40;20.17;;;10.32;;
44893;SDS011;30625;52.206;21.030;2022-12-07T13:51:01;19.70;;;10.93;;
44893;SDS011;30625;52.206;21.030;2022-12-07T13:53:28;22.55;;;11.57;;
44893;SDS011;30625;52.206;21.030;2022-12-07T13:55:58;21.55;;;11.10;;
44893;SDS011;30625;52.206;21.030;2022-12-07T13:58:25;19.95;;;11.43;;
44893;SDS011;30625;52.206;21.030;2022-12-07T14:00:54;22.77;;;11.90;;
44893;SDS011;30625;52.206;21.030;2022-12-07T14:03:28;20.50;;;11.20;;
44893;SDS011;30625;52.206;21.030;2022-12-07T14:08:36;20.17;;;10.35;;
44893;SDS011;30625;52.206;21.030;2022-12-07T14:11:02;22.98;;;11.82;;
44893;SDS011;30625;52.206;21.030;2022-12-07T14:13:38;20.92;;;11.05;;
44893;SDS011;30625;52.206;21.030;2022-12-07T14:18:52;18.63;;;10.05;;
44893;SDS011;30625;52.206;21.030;2022-12-07T14:21:21;20.90;;;10.82;;
44893;SDS011;30625;52.206;21.030;2022-12-07T14:26:44;21.70;;;11.43;;
44893;SDS011;30625;52.206;21.030;2022-12-07T14:29:45;23.77;;;13.20;;
44893;SDS011;30625;52.206;21.030;2022-12-07T14:37:35;23.63;;;12.80;;
44893;SDS011;30625;52.206;21.030;2022-12-07T14:40:02;24.35;;;12.57;;
44893;SDS011;30625;52.206;21.030;2022-12-07T14:42:29;24.52;;;13.55;;
44893;SDS011;30625;52.206;21.030;2022-12-07T14:44:57;23.70;;;12.73;;
44893;SDS011;30625;52.206;21.030;2022-12-07T14:47:23;24.63;;;13.40;;
44893;SDS011;30625;52.206;21.030;2022-12-07T14:49:50;24.70;;;13.05;;
44893;SDS011;30625;52.206;21.030;2022-12-07T14:52:22;26.27;;;13.88;;
44893;SDS011;30625;52.206;21.030;2022-12-07T14:54:52;26.42;;;13.20;;
44893;SDS011;30625;52.206;21.030;2022-12-07T14:59:44;27.35;;;12.82;;
44893;SDS011;30625;52.206;21.030;2022-12-07T15:02:13;29.50;;;14.73;;
44893;SDS011;30625;52.206;21.030;2022-12-07T15:04:40;25.98;;;13.52;;
44893;SDS011;30625;52.206;21.030;2022-12-07T15:07:09;31.27;;;15.38;;
44893;SDS011;30625;52.206;21.030;2022-12-07T15:09:55;30.42;;;14.18;;
44893;SDS011;30625;52.206;21.030;2022-12-07T15:12:20;27.02;;;13.52;;
44893;SDS011;30625;52.206;21.030;2022-12-07T15:14:46;28.85;;;14.23;;
44893;SDS011;30625;52.206;21.030;2022-12-07T15:17:12;32.63;;;16.13;;
44893;SDS011;30625;52.206;21.030;2022-12-07T15:19:38;28.38;;;13.63;;
44893;SDS011;30625;52.206;21.030;2022-12-07T15:22:04;27.85;;;13.23;;
44893;SDS011;30625;52.206;21.030;2022-12-07T15:24:30;28.98;;;15.23;;
44893;SDS011;30625;52.206;21.030;2022-12-07T15:26:55;28.52;;;14.82;;
44893;SDS011;30625;52.206;21.030;2022-12-07T15:29:21;28.15;;;14.00;;
44893;SDS011;30625;52.206;21.030;2022-12-07T15:31:48;28.90;;;14.00;;
44893;SDS011;30625;52.206;21.030;2022-12-07T15:34:18;27.33;;;14.40;;
44893;SDS011;30625;52.206;21.030;2022-12-07T15:36:44;34.78;;;16.23;;
44893;SDS011;30625;52.206;21.030;2022-12-07T15:39:10;34.83;;;15.65;;
44893;SDS011;30625;52.206;21.030;2022-12-07T15:41:39;30.02;;;14.70;;
44893;SDS011;30625;52.206;21.030;2022-12-07T15:44:05;33.55;;;17.02;;
44893;SDS011;30625;52.206;21.030;2022-12-07T15:46:50;29.57;;;15.73;;
44893;SDS011;30625;52.206;21.030;2022-12-07T15:49:16;31.23;;;16.05;;
44893;SDS011;30625;52.206;21.030;2022-12-07T15:51:44;31.48;;;15.30;;
44893;SDS011;30625;52.206;21.030;2022-12-07T15:54:32;30.88;;;15.80;;
44893;SDS011;30625;52.206;21.030;2022-12-07T15:56:58;30.08;;;16.42;;
44893;SDS011;30625;52.206;21.030;2022-12-07T15:59:25;29.45;;;13.98;;
44893;SDS011;30625;52.206;21.030;2022-12-07T16:01:51;32.17;;;15.70;;
44893;SDS011;30625;52.206;21.030;2022-12-07T16:04:17;27.38;;;14.70;;
44893;SDS011;30625;52.206;21.030;2022-12-07T16:06:43;30.35;;;14.77;;
44893;SDS011;30625;52.206;21.030;2022-12-07T16:09:09;30.30;;;15.45;;
44893;SDS011;30625;52.206;21.030;2022-12-07T16:11:35;26.80;;;13.60;;
44893;SDS011;30625;52.206;21.030;2022-12-07T16:14:01;27.48;;;13.98;;
44893;SDS011;30625;52.206;21.030;2022-12-07T16:16:27;29.08;;;14.07;;
44893;SDS011;30625;52.206;21.030;2022-12-07T16:18:53;31.67;;;14.38;;
44893;SDS011;30625;52.206;21.030;2022-12-07T16:21:19;27.05;;;13.07;;
44893;SDS011;30625;52.206;21.030;2022-12-07T16:23:45;26.50;;;13.30;;
44893;SDS011;30625;52.206;21.030;2022-12-07T16:26:12;28.75;;;14.55;;
44893;SDS011;30625;52.206;21.030;2022-12-07T16:28:39;29.55;;;15.40;;
44893;SDS011;30625;52.206;21.030;2022-12-07T16:31:07;30.83;;;15.52;;
44893;SDS011;30625;52.206;21.030;2022-12-07T16:33:38;29.45;;;13.60;;
44893;SDS011;30625;52.206;21.030;2022-12-07T16:36:05;30.17;;;14.95;;
44893;SDS011;30625;52.206;21.030;2022-12-07T16:38:32;27.65;;;14.48;;
44893;SDS011;30625;52.206;21.030;2022-12-07T16:43:24;28.00;;;14.93;;
44893;SDS011;30625;52.206;21.030;2022-12-07T16:45:50;26.35;;;13.85;;
44893;SDS011;30625;52.206;21.030;2022-12-07T16:48:16;29.17;;;15.45;;
44893;SDS011;30625;52.206;21.030;2022-12-07T16:50:43;28.00;;;13.90;;
44893;SDS011;30625;52.206;21.030;2022-12-07T16:53:09;28.73;;;15.82;;
44893;SDS011;30625;52.206;21.030;2022-12-07T16:55:39;30.40;;;15.30;;
44893;SDS011;30625;52.206;21.030;2022-12-07T16:58:06;29.02;;;13.77;;
44893;SDS011;30625;52.206;21.030;2022-12-07T17:00:32;26.65;;;13.23;;
44893;SDS011;30625;52.206;21.030;2022-12-07T17:05:24;27.85;;;14.55;;
44893;SDS011;30625;52.206;21.030;2022-12-07T17:07:51;31.83;;;15.52;;
44893;SDS011;30625;52.206;21.030;2022-12-07T17:10:17;29.50;;;14.77;;
44893;SDS011;30625;52.206;21.030;2022-12-07T17:12:43;26.33;;;12.43;;
44893;SDS011;30625;52.206;21.030;2022-12-07T17:15:09;27.17;;;13.85;;
44893;SDS011;30625;52.206;21.030;2022-12-07T17:17:41;31.65;;;14.20;;
44893;SDS011;30625;52.206;21.030;2022-12-07T17:20:09;29.58;;;14.65;;
44893;SDS011;30625;52.206;21.030;2022-12-07T17:22:35;27.63;;;14.07;;
44893;SDS011;30625;52.206;21.030;2022-12-07T17:25:02;25.70;;;13.85;;
44893;SDS011;30625;52.206;21.030;2022-12-07T17:27:29;24.92;;;13.00;;